Time;durP1;ratioP1;P1;durP2;ratioP2;P2;SDS_P1;SDS_P2;PMS_P1;PMS_P2;Temp;Humidity;BMP_temperature;BMP_pressure;BME280_temperature;BME280_humidity;BME280_pressure;Samples;Min_cycle;Max_cycle;Signal;HPM_P1;HPM_P2
2021/11/30 00:01:15;;;;;;;11.83;8.63;;;3.00;99.90;;;;;;4968862;28;20464;-64
2021/11/30 00:03:42;;;;;;;10.60;7.60;;;3.10;99.90;;;;;;4969261;28;20466;-66
2021/11/30 00:06:10;;;;;;;13.50;8.70;;;3.10;99.90;;;;;;4968695;28;20865;-65
2021/11/30 00:08:37;;;;;;;10.37;8.10;;;3.10;99.90;;;;;;4969017;28;21024;-66
2021/11/30 00:11:06;;;;;;;9.13;7.23;;;3.10;99.90;;;;;;4969363;28;21281;-65
2021/11/30 00:13:34;;;;;;;18.33;7.87;;;3.10;99.90;;;;;;4969211;28;20539;-64
2021/11/30 00:16:01;;;;;;;8.80;7.37;;;3.20;99.90;;;;;;4969181;28;20535;-66
2021/11/30 00:18:32;;;;;;;10.57;7.20;;;3.10;99.90;;;;;;4969099;28;20484;-65
2021/11/30 00:21:00;;;;;;;13.17;7.30;;;3.20;99.90;;;;;;4969323;28;20466;-65
2021/11/30 00:23:27;;;;;;;9.57;6.93;;;3.20;99.90;;;;;;4969148;28;20447;-66
2021/11/30 00:25:54;;;;;;;11.13;6.90;;;3.10;99.90;;;;;;4968659;28;20484;-64
2021/11/30 00:28:22;;;;;;;8.40;7.47;;;3.10;99.90;;;;;;4968673;28;20482;-66
2021/11/30 00:30:49;;;;;;;9.73;7.23;;;3.10;99.90;;;;;;4969065;28;20997;-66
2021/11/30 00:33:17;;;;;;;11.87;7.60;;;3.00;99.90;;;;;;4967807;28;20534;-66
2021/11/30 00:35:44;;;;;;;8.50;6.70;;;3.00;99.90;;;;;;4968056;28;20444;-65
2021/11/30 00:38:13;;;;;;;10.17;6.60;;;2.90;99.90;;;;;;4969696;28;20471;-65
2021/11/30 00:40:40;;;;;;;9.47;7.03;;;2.90;99.90;;;;;;4972820;28;21069;-66
2021/11/30 00:43:07;;;;;;;7.57;6.30;;;2.90;99.90;;;;;;4972664;28;20475;-65
2021/11/30 00:45:47;;;;;;;8.40;6.57;;;2.90;99.90;;;;;;4973110;28;20496;-65
2021/11/30 00:48:19;;;;;;;7.90;6.97;;;2.80;99.90;;;;;;4972451;28;21117;-66
2021/11/30 00:50:47;;;;;;;12.00;6.90;;;2.80;99.90;;;;;;4972566;28;20463;-66
2021/11/30 00:53:14;;;;;;;8.53;6.43;;;2.80;99.90;;;;;;4972273;28;20460;-65
2021/11/30 00:55:41;;;;;;;9.80;7.30;;;2.70;99.90;;;;;;4972315;28;20456;-64
2021/11/30 00:58:08;;;;;;;9.20;7.77;;;2.70;99.90;;;;;;4971993;28;20510;-66
2021/11/30 01:00:37;;;;;;;8.10;6.40;;;2.70;99.90;;;;;;4972896;28;20537;-65
2021/11/30 01:03:04;;;;;;;9.00;6.83;;;2.70;99.90;;;;;;4972208;28;20452;-65
2021/11/30 01:05:31;;;;;;;9.87;6.70;;;2.70;99.90;;;;;;4972574;28;21015;-65
2021/11/30 01:07:58;;;;;;;8.40;6.90;;;2.70;99.90;;;;;;4972086;28;20470;-66
2021/11/30 01:10:25;;;;;;;8.53;6.97;;;2.70;99.90;;;;;;4972619;28;20448;-66
2021/11/30 01:12:52;;;;;;;9.80;7.07;;;2.70;99.90;;;;;;4972528;28;20520;-65
2021/11/30 01:15:24;;;;;;;8.50;6.30;;;2.80;99.90;;;;;;4972206;28;20462;-66
2021/11/30 01:17:53;;;;;;;9.70;6.27;;;2.80;99.90;;;;;;4972296;28;20499;-66
2021/11/30 01:20:20;;;;;;;7.77;6.57;;;2.80;99.90;;;;;;4972015;28;20454;-64
2021/11/30 01:22:47;;;;;;;8.20;6.80;;;2.80;99.90;;;;;;4972566;28;20448;-66
2021/11/30 01:25:14;;;;;;;10.77;6.63;;;2.90;99.90;;;;;;4971835;28;20444;-65
2021/11/30 01:27:41;;;;;;;7.50;6.70;;;2.90;99.90;;;;;;4972091;28;20448;-65
2021/11/30 01:30:13;;;;;;;11.47;7.70;;;2.90;99.90;;;;;;4971923;28;20454;-65
2021/11/30 01:32:40;;;;;;;10.40;7.50;;;2.90;99.90;;;;;;4972358;28;20449;-65
2021/11/30 01:35:10;;;;;;;7.10;4.97;;;2.90;99.90;;;;;;4971809;28;20440;-65
2021/11/30 01:37:39;;;;;;;9.40;7.27;;;2.90;99.90;;;;;;4971764;28;20436;-65
2021/11/30 01:40:08;;;;;;;10.60;7.13;;;2.90;99.90;;;;;;4971956;28;20861;-65
2021/11/30 01:42:35;;;;;;;10.13;6.50;;;2.90;99.90;;;;;;4972087;28;20953;-65
2021/11/30 01:45:06;;;;;;;10.07;6.90;;;2.90;99.90;;;;;;4971841;28;20470;-66
2021/11/30 01:48:09;;;;;;;9.53;6.23;;;2.90;99.90;;;;;;4971760;28;20829;-64
2021/11/30 01:50:39;;;;;;;8.37;6.70;;;2.90;99.90;;;;;;4970766;28;20466;-65
2021/11/30 01:53:08;;;;;;;7.90;5.70;;;2.90;99.90;;;;;;4971658;28;20448;-65
2021/11/30 01:55:35;;;;;;;8.10;5.57;;;3.00;99.90;;;;;;4971372;28;20461;-66
2021/11/30 01:58:04;;;;;;;6.83;6.17;;;3.00;99.90;;;;;;4971339;28;20468;-66
2021/11/30 02:00:34;;;;;;;12.23;7.30;;;3.00;99.90;;;;;;4971651;28;20456;-65
2021/11/30 02:03:05;;;;;;;6.53;5.87;;;3.00;99.90;;;;;;4971870;28;20474;-66
2021/11/30 02:05:34;;;;;;;8.93;6.30;;;3.00;99.90;;;;;;4971671;28;20448;-66
2021/11/30 02:08:03;;;;;;;9.00;6.40;;;3.00;99.90;;;;;;4970992;28;20562;-66
2021/11/30 02:10:30;;;;;;;8.40;5.30;;;3.00;99.90;;;;;;4971749;28;20513;-65
2021/11/30 02:12:57;;;;;;;8.53;5.90;;;3.10;99.90;;;;;;4971966;28;20211;-65
2021/11/30 02:15:26;;;;;;;7.63;5.40;;;3.10;99.90;;;;;;4972064;28;20532;-65
2021/11/30 02:17:53;;;;;;;8.70;5.83;;;3.10;99.90;;;;;;4970960;28;20456;-65
2021/11/30 02:20:21;;;;;;;8.30;5.80;;;3.10;99.90;;;;;;4971151;28;21035;-66
2021/11/30 02:22:53;;;;;;;7.17;5.50;;;3.10;99.90;;;;;;4970436;28;20798;-66
2021/11/30 02:25:20;;;;;;;6.03;5.23;;;3.10;99.90;;;;;;4971009;28;20452;-64
2021/11/30 02:27:47;;;;;;;5.77;5.27;;;3.20;99.90;;;;;;4970517;28;20480;-65
2021/11/30 02:30:15;;;;;;;7.07;4.90;;;3.20;99.90;;;;;;4970728;28;21170;-65
2021/11/30 02:32:43;;;;;;;8.20;4.87;;;3.10;99.90;;;;;;4970666;28;21228;-65
2021/11/30 02:35:11;;;;;;;9.73;5.10;;;3.20;99.90;;;;;;4970733;28;20450;-65
2021/11/30 02:37:44;;;;;;;5.50;4.20;;;3.20;99.90;;;;;;4970229;28;20485;-64
2021/11/30 02:40:12;;;;;;;10.17;5.17;;;3.20;99.90;;;;;;4970704;28;20454;-65
2021/11/30 02:42:39;;;;;;;13.27;4.10;;;3.20;99.90;;;;;;4970910;28;20444;-66
2021/11/30 02:45:07;;;;;;;7.57;4.27;;;3.20;99.90;;;;;;4970593;28;20446;-65
2021/11/30 02:47:34;;;;;;;6.00;4.60;;;3.20;99.90;;;;;;4970051;28;20484;-65
2021/11/30 02:50:00;;;;;;;4.43;3.70;;;3.30;99.90;;;;;;4970123;28;20463;-65
2021/11/30 02:52:29;;;;;;;5.80;4.00;;;3.20;99.90;;;;;;4970520;28;20442;-66
2021/11/30 02:54:57;;;;;;;5.60;4.10;;;3.20;99.90;;;;;;4970603;28;20543;-65
2021/11/30 02:57:24;;;;;;;8.00;4.50;;;3.30;99.90;;;;;;4970424;28;20549;-65
2021/11/30 02:59:54;;;;;;;4.67;3.97;;;3.20;99.90;;;;;;4970281;28;21000;-66
2021/11/30 03:02:23;;;;;;;8.00;4.97;;;3.20;99.90;;;;;;4970440;28;20527;-64
2021/11/30 03:04:52;;;;;;;6.50;3.20;;;3.20;99.90;;;;;;4970301;28;21312;-65
2021/11/30 03:07:21;;;;;;;6.50;3.70;;;3.20;99.90;;;;;;4970002;28;20491;-65
2021/11/30 03:09:48;;;;;;;5.70;3.50;;;3.20;99.90;;;;;;4970011;28;20472;-65
2021/11/30 03:12:16;;;;;;;6.33;3.80;;;3.10;99.90;;;;;;4970269;28;20449;-65
2021/11/30 03:14:43;;;;;;;7.30;3.20;;;3.00;99.90;;;;;;4969983;28;20452;-64
2021/11/30 03:17:11;;;;;;;4.90;3.30;;;2.90;99.90;;;;;;4969787;28;20448;-65
2021/11/30 03:19:38;;;;;;;3.50;2.90;;;2.90;99.90;;;;;;4969653;28;21296;-66
2021/11/30 03:22:06;;;;;;;5.13;2.87;;;2.90;99.90;;;;;;4969940;28;20948;-65
2021/11/30 03:24:33;;;;;;;4.30;3.13;;;2.90;99.90;;;;;;4969917;28;20515;-67
2021/11/30 03:27:01;;;;;;;3.00;2.53;;;2.80;99.90;;;;;;4969799;28;20702;-65
2021/11/30 03:29:29;;;;;;;4.67;2.97;;;2.80;99.90;;;;;;4970611;28;20831;-65
2021/11/30 03:32:04;;;;;;;5.23;2.67;;;2.80;99.90;;;;;;4969986;28;20469;-65
2021/11/30 03:34:30;;;;;;;5.40;2.60;;;2.80;99.90;;;;;;4969913;28;20451;-66
2021/11/30 03:36:57;;;;;;;3.60;2.80;;;2.90;99.90;;;;;;4969330;28;20493;-66
2021/11/30 03:39:27;;;;;;;4.00;1.80;;;2.90;99.90;;;;;;4969544;28;20465;-66
2021/11/30 03:41:56;;;;;;;3.27;2.30;;;3.00;99.90;;;;;;4969445;28;20445;-64
2021/11/30 03:44:24;;;;;;;3.90;2.87;;;3.00;99.90;;;;;;4969552;28;20447;-66
2021/11/30 03:46:53;;;;;;;4.23;2.33;;;3.00;99.90;;;;;;4969081;28;20577;-65
2021/11/30 03:49:21;;;;;;;5.13;2.33;;;3.00;99.90;;;;;;4969421;28;20469;-65
2021/11/30 03:51:49;;;;;;;3.80;2.57;;;3.00;99.90;;;;;;4969485;28;20480;-65
2021/11/30 03:54:17;;;;;;;3.40;1.97;;;3.10;99.90;;;;;;4967267;28;20440;-66
2021/11/30 03:56:44;;;;;;;3.73;2.13;;;3.10;99.90;;;;;;4968984;28;20533;-65
2021/11/30 03:59:12;;;;;;;4.30;1.80;;;3.10;99.90;;;;;;4968937;28;20562;-65
2021/11/30 04:01:39;;;;;;;3.43;2.30;;;3.10;99.90;;;;;;4968850;28;20213;-65
2021/11/30 04:04:12;;;;;;;6.27;2.53;;;3.10;99.90;;;;;;4969326;28;20465;-65
2021/11/30 04:06:39;;;;;;;5.03;2.40;;;3.20;99.90;;;;;;4968821;28;20488;-65
2021/11/30 04:09:07;;;;;;;4.37;2.20;;;3.10;99.90;;;;;;4968927;28;20481;-64
2021/11/30 04:11:34;;;;;;;4.27;2.30;;;3.20;99.90;;;;;;4969242;28;20835;-65
2021/11/30 04:14:01;;;;;;;5.50;2.00;;;3.20;99.90;;;;;;4968715;28;20922;-66
2021/11/30 04:16:28;;;;;;;3.70;2.30;;;3.20;99.90;;;;;;4968766;28;20448;-64
2021/11/30 04:18:55;;;;;;;3.23;2.07;;;3.20;99.90;;;;;;4968877;28;20469;-64
2021/11/30 04:21:23;;;;;;;2.47;1.77;;;3.20;99.90;;;;;;4969176;28;20449;-65
2021/11/30 04:23:51;;;;;;;4.80;1.93;;;3.30;99.90;;;;;;4968745;28;20949;-65
2021/11/30 04:26:18;;;;;;;6.00;1.87;;;3.20;99.90;;;;;;4968942;28;20502;-65
2021/11/30 04:28:45;;;;;;;3.60;2.30;;;3.20;99.90;;;;;;4968756;28;20463;-66
2021/11/30 04:31:12;;;;;;;4.70;2.63;;;3.20;99.90;;;;;;4968808;28;21043;-66
2021/11/30 04:33:40;;;;;;;2.80;2.27;;;3.20;99.90;;;;;;4968886;28;20449;-66
2021/11/30 04:36:07;;;;;;;4.13;2.10;;;3.20;99.90;;;;;;4969177;28;20500;-65
2021/11/30 04:38:36;;;;;;;3.70;1.97;;;3.30;99.90;;;;;;4968900;28;20452;-65
2021/11/30 04:41:04;;;;;;;5.93;2.13;;;3.20;99.90;;;;;;4968963;28;20456;-65
2021/11/30 04:43:34;;;;;;;7.10;2.60;;;3.20;99.90;;;;;;4968622;28;20453;-66
2021/11/30 04:46:05;;;;;;;4.30;2.30;;;3.20;99.90;;;;;;4968995;28;20451;-65
2021/11/30 04:48:34;;;;;;;2.70;2.00;;;3.20;99.90;;;;;;4968370;28;20518;-65
2021/11/30 04:51:02;;;;;;;2.90;2.10;;;3.20;99.90;;;;;;4968565;28;20480;-65
2021/11/30 04:53:31;;;;;;;3.97;2.90;;;3.10;99.90;;;;;;4968932;28;20466;-65
2021/11/30 04:56:00;;;;;;;3.17;2.00;;;3.00;99.90;;;;;;4968450;28;21012;-66
2021/11/30 04:58:27;;;;;;;4.80;2.50;;;3.10;99.90;;;;;;4968360;28;20472;-65
2021/11/30 05:00:54;;;;;;;3.20;2.30;;;3.10;99.90;;;;;;4968273;28;20459;-65
2021/11/30 05:03:21;;;;;;;3.67;2.43;;;3.10;99.90;;;;;;4968376;28;20445;-65
2021/11/30 05:05:48;;;;;;;4.20;2.57;;;3.10;99.90;;;;;;4968384;28;20448;-64
2021/11/30 05:08:15;;;;;;;6.43;3.00;;;3.10;99.90;;;;;;4967936;28;20578;-66
2021/11/30 05:10:42;;;;;;;2.80;1.90;;;3.10;99.90;;;;;;4968266;28;20741;-66
2021/11/30 05:13:10;;;;;;;3.60;2.43;;;3.10;99.90;;;;;;4968372;28;20458;-65
2021/11/30 05:15:37;;;;;;;3.17;2.03;;;3.10;99.90;;;;;;4967850;28;20458;-66
2021/11/30 05:18:05;;;;;;;4.00;2.30;;;3.10;99.90;;;;;;4967945;28;20474;-64
2021/11/30 05:20:32;;;;;;;4.80;2.77;;;3.10;99.90;;;;;;4968310;28;20824;-64
2021/11/30 05:22:59;;;;;;;5.57;2.20;;;3.20;99.90;;;;;;4968365;28;20954;-65
2021/11/30 05:25:33;;;;;;;4.67;2.30;;;3.20;99.90;;;;;;4970325;28;20993;-64
2021/11/30 05:28:01;;;;;;;3.87;2.23;;;3.20;99.90;;;;;;4971425;28;20486;-65
2021/11/30 05:30:36;;;;;;;4.23;2.53;;;3.10;99.90;;;;;;4971992;28;20875;-65
2021/11/30 05:33:04;;;;;;;6.57;2.47;;;3.10;99.90;;;;;;4971623;28;20457;-64
2021/11/30 05:35:31;;;;;;;3.80;2.27;;;3.10;99.90;;;;;;4971751;28;20932;-64
2021/11/30 05:37:57;;;;;;;4.40;2.90;;;3.00;99.90;;;;;;4971093;28;20473;-65
2021/11/30 05:40:24;;;;;;;5.53;2.63;;;3.00;99.90;;;;;;4971769;28;20466;-66
2021/11/30 05:42:51;;;;;;;4.87;2.97;;;3.00;99.90;;;;;;4971152;28;21091;-64
2021/11/30 05:45:18;;;;;;;7.70;2.53;;;2.90;99.90;;;;;;4971727;28;20538;-64
2021/11/30 05:47:46;;;;;;;4.17;2.23;;;2.90;99.90;;;;;;4971067;28;20482;-60
2021/11/30 05:50:13;;;;;;;7.07;3.87;;;2.90;99.90;;;;;;4971717;28;20569;-62
2021/11/30 05:52:46;;;;;;;6.30;3.30;;;2.80;99.90;;;;;;4971781;28;20449;-64
2021/11/30 05:55:13;;;;;;;3.10;2.70;;;2.80;99.90;;;;;;4972161;28;20472;-64
2021/11/30 05:57:41;;;;;;;4.70;3.10;;;2.80;99.90;;;;;;4970993;28;20484;-63
2021/11/30 06:00:10;;;;;;;5.50;3.60;;;2.80;99.90;;;;;;4970628;28;20456;-63
2021/11/30 06:02:52;;;;;;;6.10;3.10;;;2.70;99.90;;;;;;4971033;28;20546;-64
2021/11/30 06:05:20;;;;;;;4.23;3.07;;;2.70;99.90;;;;;;4971250;28;20449;-64
2021/11/30 06:07:48;;;;;;;8.40;3.37;;;2.70;99.90;;;;;;4970552;28;20488;-65
2021/11/30 06:10:15;;;;;;;5.00;4.00;;;2.70;99.90;;;;;;4970699;28;20965;-64
2021/11/30 06:12:42;;;;;;;7.87;3.40;;;2.60;99.90;;;;;;4969375;28;21040;-65
2021/11/30 06:15:10;;;;;;;5.43;3.77;;;2.60;99.90;;;;;;4968395;28;20444;-66
2021/11/30 06:17:36;;;;;;;6.40;3.90;;;2.60;99.90;;;;;;4970122;28;20452;-65
2021/11/30 06:20:05;;;;;;;4.57;3.93;;;2.60;99.90;;;;;;4969936;28;20462;-64
2021/11/30 06:22:34;;;;;;;6.13;4.00;;;2.60;99.90;;;;;;4969391;28;20960;-64
2021/11/30 06:25:02;;;;;;;5.60;4.60;;;2.60;99.90;;;;;;4968678;28;20456;-64
2021/11/30 06:27:29;;;;;;;4.53;3.83;;;2.60;99.90;;;;;;4970387;28;20507;-65
2021/11/30 06:29:56;;;;;;;5.70;4.30;;;2.50;99.90;;;;;;4970735;28;20456;-63
2021/11/30 06:32:23;;;;;;;4.20;3.60;;;2.40;99.90;;;;;;4971002;28;20450;-64
2021/11/30 06:34:50;;;;;;;8.13;4.83;;;2.40;99.90;;;;;;4970614;28;20452;-64
2021/11/30 06:37:17;;;;;;;6.00;4.70;;;2.30;99.90;;;;;;4970147;28;20474;-64
2021/11/30 06:39:46;;;;;;;6.47;4.40;;;2.30;99.90;;;;;;4970397;28;20877;-64
2021/11/30 06:42:13;;;;;;;8.50;4.40;;;2.30;99.90;;;;;;4970749;28;20447;-64
2021/11/30 06:44:39;;;;;;;6.93;4.70;;;2.20;99.90;;;;;;4970694;28;20540;-64
2021/11/30 06:47:07;;;;;;;9.00;5.77;;;2.20;99.90;;;;;;4970224;28;20462;-64
2021/11/30 06:49:34;;;;;;;9.50;5.47;;;2.20;99.90;;;;;;4970282;28;21023;-64
2021/11/30 06:52:01;;;;;;;7.63;5.80;;;2.10;99.90;;;;;;4970315;28;20465;-64
2021/11/30 06:54:27;;;;;;;8.50;5.63;;;2.10;99.90;;;;;;4970115;28;20440;-64
2021/11/30 06:56:56;;;;;;;7.83;6.37;;;2.10;99.90;;;;;;4969242;28;20453;-64
2021/11/30 06:59:24;;;;;;;7.50;6.17;;;2.00;99.90;;;;;;4969873;28;20870;-64
2021/11/30 07:01:51;;;;;;;7.40;5.20;;;2.00;99.90;;;;;;4969962;28;20455;-64
2021/11/30 07:04:18;;;;;;;6.53;5.50;;;1.90;99.90;;;;;;4969962;28;20974;-64
2021/11/30 07:06:57;;;;;;;12.67;6.93;;;1.90;99.90;;;;;;4969467;28;20451;-64
2021/11/30 07:09:34;;;;;;;8.90;6.40;;;2.00;99.90;;;;;;4969677;28;20502;-64
2021/11/30 07:12:08;;;;;;;7.13;5.40;;;2.00;99.90;;;;;;4969757;28;20534;-64
2021/11/30 07:14:35;;;;;;;7.20;5.40;;;2.00;99.90;;;;;;4969706;28;20436;-64
2021/11/30 07:17:02;;;;;;;8.90;6.07;;;2.00;99.90;;;;;;4969545;28;20444;-64
2021/11/30 07:19:31;;;;;;;6.27;5.40;;;2.00;99.90;;;;;;4969997;28;20468;-64
2021/11/30 07:21:57;;;;;;;7.93;5.50;;;2.10;99.90;;;;;;4969763;28;20843;-63
2021/11/30 07:24:24;;;;;;;6.90;4.83;;;2.10;99.90;;;;;;4969710;28;20855;-64
2021/11/30 07:26:51;;;;;;;6.20;5.00;;;2.10;99.90;;;;;;4969450;28;20460;-63
2021/11/30 07:29:19;;;;;;;7.40;5.33;;;2.10;99.90;;;;;;4969518;28;20515;-64
2021/11/30 07:31:46;;;;;;;7.50;5.37;;;2.10;99.90;;;;;;4969453;28;20462;-64
2021/11/30 07:34:13;;;;;;;6.97;4.50;;;2.20;99.90;;;;;;4969401;28;20557;-64
2021/11/30 07:36:40;;;;;;;5.60;4.40;;;2.20;99.90;;;;;;4968845;28;20452;-66
2021/11/30 07:39:07;;;;;;;7.67;4.93;;;2.20;99.90;;;;;;4969116;28;20997;-65
2021/11/30 07:41:35;;;;;;;5.53;4.30;;;2.20;99.90;;;;;;4969015;28;20452;-66
2021/11/30 07:44:03;;;;;;;6.47;3.97;;;2.20;99.90;;;;;;4969427;28;20468;-64
2021/11/30 07:46:31;;;;;;;5.80;3.73;;;2.20;99.90;;;;;;4968977;28;20460;-64
2021/11/30 07:48:58;;;;;;;7.60;3.87;;;2.20;99.90;;;;;;4968508;28;20480;-65
2021/11/30 07:51:27;;;;;;;4.90;3.40;;;2.30;99.90;;;;;;4969421;28;20444;-64
2021/11/30 07:53:54;;;;;;;5.77;3.67;;;2.30;99.90;;;;;;4968982;28;20535;-64
2021/11/30 07:56:21;;;;;;;5.60;2.97;;;2.30;99.90;;;;;;4969120;28;20511;-65
2021/11/30 07:58:48;;;;;;;5.10;3.50;;;2.30;99.90;;;;;;4969229;28;20460;-65
2021/11/30 08:01:16;;;;;;;4.47;2.70;;;2.30;99.90;;;;;;4969357;28;20445;-65
2021/11/30 08:03:45;;;;;;;4.43;2.67;;;2.40;99.90;;;;;;4969059;28;20448;-66
2021/11/30 08:06:12;;;;;;;4.60;2.87;;;2.40;99.90;;;;;;4969081;28;20805;-64
2021/11/30 08:08:38;;;;;;;3.70;2.53;;;2.40;99.90;;;;;;4968401;28;20858;-65
2021/11/30 08:11:06;;;;;;;4.50;3.37;;;2.40;99.90;;;;;;4968804;28;20440;-64
2021/11/30 08:13:33;;;;;;;4.60;3.03;;;2.40;99.90;;;;;;4968291;28;20462;-64
2021/11/30 08:16:00;;;;;;;3.90;2.40;;;2.40;99.90;;;;;;4968899;28;20862;-65
2021/11/30 08:18:27;;;;;;;3.30;2.40;;;2.40;99.90;;;;;;4968467;28;20813;-65
2021/11/30 08:20:56;;;;;;;4.17;2.80;;;2.30;99.90;;;;;;4968733;28;20452;-65
2021/11/30 08:23:23;;;;;;;4.00;2.07;;;2.30;99.90;;;;;;4968659;28;21132;-64
2021/11/30 08:25:50;;;;;;;5.40;2.57;;;2.30;99.90;;;;;;4969404;28;20443;-64
2021/11/30 08:28:17;;;;;;;3.40;2.40;;;2.30;99.90;;;;;;4969454;28;20487;-66
2021/11/30 08:30:45;;;;;;;3.23;2.40;;;2.40;99.90;;;;;;4968944;28;20440;-66
2021/11/30 08:33:12;;;;;;;4.80;2.93;;;2.40;99.90;;;;;;4968712;28;20440;-65
2021/11/30 08:35:39;;;;;;;6.87;2.93;;;2.40;99.90;;;;;;4968907;28;21006;-64
2021/11/30 08:38:08;;;;;;;5.70;2.50;;;2.40;99.90;;;;;;4968687;28;20460;-65
2021/11/30 08:40:34;;;;;;;3.50;2.10;;;2.50;99.90;;;;;;4968782;28;20444;-65
2021/11/30 08:43:02;;;;;;;3.30;2.40;;;2.60;99.90;;;;;;4968829;28;20534;-65
2021/11/30 08:45:29;;;;;;;4.00;2.80;;;2.60;99.90;;;;;;4968661;28;20531;-66
2021/11/30 08:47:56;;;;;;;5.17;2.13;;;2.60;99.90;;;;;;4968490;28;20523;-65
2021/11/30 08:50:23;;;;;;;4.50;2.53;;;2.60;99.90;;;;;;4967893;28;20456;-65
2021/11/30 08:52:50;;;;;;;4.10;2.53;;;2.50;99.90;;;;;;4968918;28;20543;-65
2021/11/30 08:55:19;;;;;;;3.47;2.37;;;2.50;99.90;;;;;;4968575;28;20440;-65
2021/11/30 08:57:46;;;;;;;3.63;2.60;;;2.50;99.90;;;;;;4968116;28;20448;-64
2021/11/30 09:00:16;;;;;;;3.23;2.40;;;2.40;99.90;;;;;;4971796;28;20450;-65
2021/11/30 09:02:43;;;;;;;8.20;2.63;;;2.50;99.90;;;;;;4972241;28;20452;-66
2021/11/30 09:05:10;;;;;;;6.40;2.60;;;2.40;99.90;;;;;;4972340;28;20547;-63
2021/11/30 09:07:37;;;;;;;4.00;2.70;;;2.40;99.90;;;;;;4972140;28;20442;-64
2021/11/30 09:10:05;;;;;;;4.27;3.10;;;2.40;99.90;;;;;;4971921;28;20496;-66
2021/11/30 09:12:33;;;;;;;9.50;6.85;;;2.50;99.90;;;;;;4972105;28;21010;-64
2021/11/30 09:15:01;;;;;;;13.60;9.20;;;2.50;99.90;;;;;;4971872;28;20211;-65
2021/11/30 09:17:29;;;;;;;4.40;2.80;;;2.50;99.90;;;;;;4971967;28;20450;-65
2021/11/30 09:19:56;;;;;;;3.20;2.33;;;2.60;99.90;;;;;;4972472;28;20511;-65
2021/11/30 09:22:25;;;;;;;3.17;2.40;;;2.60;99.90;;;;;;4972849;28;20451;-65
2021/11/30 09:24:57;;;;;;;3.30;2.10;;;2.60;99.90;;;;;;4972627;28;20448;-66
2021/11/30 09:27:25;;;;;;;4.00;2.47;;;2.60;99.90;;;;;;4971607;28;20454;-63
2021/11/30 09:29:54;;;;;;;5.97;2.30;;;2.70;99.90;;;;;;4971850;28;20483;-63
2021/11/30 09:32:24;;;;;;;7.23;4.67;;;2.70;99.90;;;;;;4971922;28;20535;-64
2021/11/30 09:34:51;;;;;;;4.40;2.70;;;2.70;99.90;;;;;;4971529;28;20468;-64
2021/11/30 09:37:18;;;;;;;3.00;1.67;;;2.70;99.90;;;;;;4971454;28;20442;-64
2021/11/30 09:39:45;;;;;;;2.83;1.97;;;2.80;99.90;;;;;;4969007;28;20482;-65
2021/11/30 09:42:13;;;;;;;2.97;2.20;;;2.80;99.90;;;;;;4968892;28;20456;-66
2021/11/30 09:44:41;;;;;;;4.83;1.97;;;2.90;99.90;;;;;;4969251;28;21178;-65
2021/11/30 09:47:09;;;;;;;5.10;2.17;;;2.90;99.90;;;;;;4969688;28;20447;-65
2021/11/30 09:49:36;;;;;;;5.33;2.23;;;3.00;99.90;;;;;;4969512;28;20487;-65
2021/11/30 09:52:04;;;;;;;2.50;1.57;;;3.00;99.90;;;;;;4969785;28;20448;-65
2021/11/30 09:54:31;;;;;;;7.83;2.27;;;3.00;99.90;;;;;;4969570;28;20455;-65
2021/11/30 09:56:58;;;;;;;2.70;1.80;;;3.00;99.90;;;;;;4969116;28;21221;-64
2021/11/30 09:59:25;;;;;;;3.33;1.87;;;3.00;99.90;;;;;;4969944;28;20468;-65
2021/11/30 10:01:52;;;;;;;4.30;2.07;;;3.10;99.90;;;;;;4969678;28;21049;-65
2021/11/30 10:04:21;;;;;;;2.30;1.37;;;3.10;99.90;;;;;;4969666;28;20534;-65
2021/11/30 10:06:48;;;;;;;2.57;1.63;;;3.10;99.90;;;;;;4969697;28;20452;-64
2021/11/30 10:09:17;;;;;;;3.60;1.70;;;3.20;99.90;;;;;;4969401;28;21006;-65
2021/11/30 10:11:44;;;;;;;2.43;1.43;;;3.20;99.90;;;;;;4967981;28;20484;-65
2021/11/30 10:14:13;;;;;;;3.03;1.60;;;3.20;99.90;;;;;;4969142;28;20452;-65
2021/11/30 10:16:40;;;;;;;2.10;1.57;;;3.20;99.90;;;;;;4968998;28;20445;-65
2021/11/30 10:19:07;;;;;;;2.00;1.40;;;3.20;99.90;;;;;;4969170;28;20852;-66
2021/11/30 10:21:36;;;;;;;3.00;1.83;;;3.20;99.90;;;;;;4969065;28;20452;-66
2021/11/30 10:24:06;;;;;;;2.20;1.30;;;3.20;99.90;;;;;;4968843;28;21182;-65
2021/11/30 10:26:34;;;;;;;2.27;1.37;;;3.20;99.90;;;;;;4969202;28;20464;-65
2021/11/30 10:29:05;;;;;;;3.87;2.03;;;3.20;99.90;;;;;;4968798;28;20487;-67
2021/11/30 10:31:35;;;;;;;2.27;1.30;;;3.10;99.90;;;;;;4968864;28;20454;-66
2021/11/30 10:34:11;;;;;;;3.20;1.47;;;3.10;99.90;;;;;;4968876;28;20539;-66
2021/11/30 10:36:46;;;;;;;2.13;1.13;;;3.10;99.90;;;;;;4968549;28;20457;-66
2021/11/30 10:39:21;;;;;;;5.30;1.20;;;3.10;99.90;;;;;;4968928;28;20842;-65
2021/11/30 10:41:49;;;;;;;2.43;1.17;;;3.00;99.90;;;;;;4968646;28;20445;-66
2021/11/30 10:44:17;;;;;;;2.20;1.30;;;2.90;99.90;;;;;;4968414;28;20462;-66
2021/11/30 10:46:44;;;;;;;2.43;1.00;;;2.80;99.90;;;;;;4968434;28;20459;-65
2021/11/30 10:49:11;;;;;;;2.27;1.43;;;2.70;99.90;;;;;;4968098;28;20491;-63
2021/11/30 10:51:44;;;;;;;2.40;1.10;;;2.70;99.90;;;;;;4969078;28;20490;-64
2021/11/30 10:54:12;;;;;;;2.73;1.30;;;2.70;99.90;;;;;;4969379;28;20460;-62
2021/11/30 10:56:40;;;;;;;2.63;1.00;;;2.80;99.90;;;;;;4968443;28;20452;-63
2021/11/30 10:59:06;;;;;;;2.23;1.30;;;2.90;99.90;;;;;;4968465;28;20503;-64
2021/11/30 11:01:34;;;;;;;2.00;1.10;;;2.90;99.90;;;;;;4968286;28;20458;-64
2021/11/30 11:04:03;;;;;;;3.60;1.00;;;3.00;99.90;;;;;;4968735;28;20543;-65
2021/11/30 11:06:32;;;;;;;1.80;0.90;;;3.10;99.90;;;;;;4967881;28;20460;-66
2021/11/30 11:09:03;;;;;;;2.40;1.17;;;3.10;99.90;;;;;;4968118;28;20492;-65
2021/11/30 11:11:34;;;;;;;1.70;0.90;;;3.10;99.90;;;;;;4968306;28;20553;-65
2021/11/30 11:14:02;;;;;;;1.90;1.00;;;3.10;99.90;;;;;;4968326;28;20455;-65
2021/11/30 11:16:31;;;;;;;3.60;1.20;;;3.10;99.90;;;;;;4967861;28;21045;-64
2021/11/30 11:19:00;;;;;;;2.50;1.10;;;3.10;99.90;;;;;;4968094;28;20514;-64
2021/11/30 11:21:29;;;;;;;3.43;1.00;;;3.10;99.90;;;;;;4967903;28;20458;-64
2021/11/30 11:24:03;;;;;;;2.22;1.35;;;3.10;99.90;;;;;;4968186;28;20509;-65
2021/11/30 11:26:36;;;;;;;2.57;1.13;;;3.10;99.90;;;;;;4967924;28;20202;-66
2021/11/30 11:29:06;;;;;;;2.53;1.13;;;3.10;99.90;;;;;;4968697;28;21016;-66
2021/11/30 11:31:33;;;;;;;2.13;1.03;;;3.10;99.90;;;;;;4968251;28;20510;-65
2021/11/30 11:34:02;;;;;;;1.80;0.77;;;3.10;99.90;;;;;;4968391;28;20454;-65
2021/11/30 11:36:29;;;;;;;2.60;1.13;;;3.10;99.90;;;;;;4968028;28;20544;-64
2021/11/30 11:38:56;;;;;;;2.30;1.10;;;3.10;99.90;;;;;;4968554;28;20474;-66
2021/11/30 11:41:24;;;;;;;2.73;1.17;;;3.10;99.90;;;;;;4968284;28;20504;-66
2021/11/30 11:43:53;;;;;;;2.37;1.10;;;3.20;99.90;;;;;;4968329;28;20705;-67
2021/11/30 11:46:21;;;;;;;3.03;1.97;;;3.20;99.90;;;;;;4968867;28;20547;-65
2021/11/30 11:48:55;;;;;;;1.80;0.90;;;3.20;99.90;;;;;;4968820;28;20492;-65
2021/11/30 11:51:22;;;;;;;2.28;1.13;;;3.30;99.90;;;;;;4971934;28;20482;-65
2021/11/30 11:53:54;;;;;;;2.43;1.00;;;3.40;99.90;;;;;;4970303;28;20295;-65
2021/11/30 11:56:24;;;;;;;1.77;0.83;;;3.40;99.90;;;;;;4971483;28;20454;-66
2021/11/30 11:59:09;;;;;;;1.70;0.80;;;3.50;99.90;;;;;;4972263;28;20478;-66
2021/11/30 12:01:37;;;;;;;2.00;0.80;;;3.50;99.90;;;;;;4973162;28;20454;-66
2021/11/30 12:04:06;;;;;;;2.40;1.00;;;3.60;99.90;;;;;;4970824;28;20521;-66
2021/11/30 12:06:36;;;;;;;2.07;1.00;;;3.60;99.90;;;;;;4970497;28;20440;-66
2021/11/30 12:09:16;;;;;;;1.90;0.97;;;3.60;99.90;;;;;;4971966;28;20557;-66
2021/11/30 12:11:46;;;;;;;2.50;1.10;;;3.60;99.90;;;;;;4971953;28;20900;-65
2021/11/30 12:14:19;;;;;;;1.80;0.93;;;3.70;99.90;;;;;;4969524;28;21035;-64
2021/11/30 12:17:04;;;;;;;1.70;0.77;;;3.70;99.90;;;;;;4968864;28;20572;-64
2021/11/30 12:19:33;;;;;;;1.80;0.80;;;3.70;99.90;;;;;;4968676;28;20466;-64
2021/11/30 12:22:00;;;;;;;1.80;0.80;;;3.70;99.90;;;;;;4965160;28;20458;-64
2021/11/30 12:24:39;;;;;;;2.07;1.10;;;3.80;99.90;;;;;;4963688;28;20462;-65
2021/11/30 12:27:41;;;;;;;2.50;1.13;;;3.80;99.90;;;;;;4967972;28;20983;-64
2021/11/30 12:30:38;;;;;;;3.37;0.97;;;3.80;99.90;;;;;;4913072;28;20966;-63
2021/11/30 12:33:05;;;;;;;2.17;1.20;;;3.80;99.90;;;;;;4968461;28;20909;-64
2021/11/30 12:35:47;;;;;;;2.60;1.27;;;3.90;99.90;;;;;;4974323;28;20447;-63
2021/11/30 12:38:17;;;;;;;2.17;1.00;;;3.90;99.90;;;;;;4971330;28;20537;-63
2021/11/30 12:40:48;;;;;;;2.47;1.10;;;4.00;99.90;;;;;;4974013;28;20901;-66
2021/11/30 12:43:18;;;;;;;2.13;1.00;;;4.00;99.90;;;;;;4974606;28;20454;-64
2021/11/30 12:45:48;;;;;;;2.87;1.17;;;4.00;99.90;;;;;;4974397;28;20956;-65
2021/11/30 12:48:17;;;;;;;3.63;1.10;;;4.00;99.90;;;;;;4974250;28;21129;-65
2021/11/30 12:50:44;;;;;;;2.23;1.23;;;4.10;99.90;;;;;;4973759;28;20529;-65
2021/11/30 12:53:11;;;;;;;2.60;1.50;;;4.00;99.90;;;;;;4972270;28;20566;-64
2021/11/30 12:55:47;;;;;;;2.43;0.90;;;4.10;99.90;;;;;;4974391;28;20490;-65
2021/11/30 12:58:43;;;;;;;5.83;1.20;;;4.10;99.90;;;;;;4955171;28;20900;-65
2021/11/30 13:01:17;;;;;;;7.07;1.03;;;4.20;99.90;;;;;;4955491;29;20455;-64
2021/11/30 13:03:45;;;;;;;3.03;1.00;;;4.20;99.90;;;;;;4955621;29;20452;-63